• Join FlightAware (Why Join?)
  • Login
  • US Flag 
07:32AM EDT


 

Airport Tracker/Info


-or-


 

Live Flight TrackerFlight Track Log ✈ N618JB ✈ 17-Apr-2013 ✈ KLAS - KLGB

Flight Track Log - Related Links

Times and Time Zones

All times are in EDT time to prevent confusion due to time zone crossing. See the N618JB flight status page for this flight to view local times or setup timezone preferences in your user account.

Time Position Orientation Groundspeed Altitude Reporting Facility
EDT Latitude Longitude Course Direction KTS MPH feet Rate Location/Type
02:00PM 36.1006 -115.1522 161° South 147 169 3,200  Level Los Angeles Center
02:01PM 36.1250 -115.1842 313° West 187 215 4,700 1,860 Climbing Los Angeles Center
02:02PM 36.1192 -115.2233 260° West 235 270 5,900 3,240 Climbing Los Angeles Center
02:02PM 36.1089 -115.2692 254° West 256 295 8,000 3,660 Climbing Los Angeles Center
02:03PM 35.9079 -115.3794 202° Southwest  Level FlightAware Approximate
02:03PM 36.0869 -115.3017 230° Southwest 261 300 9,800  Level Los Angeles Center
02:04PM 35.8073 -115.3435 161° South  Level FlightAware Approximate
02:04PM 36.0019 -115.2861 172° South 314 361 13,000  Level Los Angeles Center
02:05PM 35.7499 -115.3189 161° South  Level FlightAware Approximate
02:05PM 35.9144 -115.2625 168° South 324 373 15,700  Level Los Angeles Center
02:06PM 35.6926 -115.2944 161° South  Level FlightAware Approximate
02:06PM 35.8103 -115.2775 187° South 362 417 16,700  Level Los Angeles Center
02:07PM 35.6933 -115.2969 188° South 405 466 18,600 1,980 Climbing Los Angeles Center
02:08PM 35.6050 -115.3936 222° Southwest 413 475 20,900 2,220 Climbing Los Angeles Center
02:09PM 35.5108 -115.5233 228° Southwest 420 483 23,300 1,500 Climbing Los Angeles Center
02:10PM 35.4289 -115.6300 227° Southwest 420 483 24,000 300 Climbing Los Angeles Center
02:11PM 35.3489 -115.7369 227° Southwest 423 487 24,000  Level Los Angeles Center
02:12PM 35.2681 -115.8450 228° Southwest 427 491 24,000  Level Los Angeles Center
02:13PM 35.1864 -115.9514 227° Southwest 428 493 24,000  Level Los Angeles Center
02:14PM 35.1061 -116.0589 228° Southwest 428 493 24,000  Level Los Angeles Center
02:15PM 35.0256 -116.1653 227° Southwest 427 491 24,000  Level Los Angeles Center
02:16PM 34.9278 -116.2922 227° Southwest 427 491 24,100  Climbing Los Angeles Center
02:17PM 34.8478 -116.3961 227° Southwest 423 487 24,000 -60 Descending Los Angeles Center
02:18PM 34.7686 -116.4978 227° Southwest 416 479 24,000  Level Los Angeles Center
02:19PM 34.6864 -116.5997 226° Southwest 421 484 24,000 -360 Level Los Angeles Center
02:20PM 34.6036 -116.6989 225° Southwest 419 482 23,300 -1,920 Descending Los Angeles Center
02:21PM 34.5194 -116.8014 225° Southwest 425 489 20,100 -3,180 Descending Los Angeles Center
02:22PM 34.4353 -116.9031 225° Southwest 426 490 16,800 -3,180 Descending Los Angeles Center
02:23PM 34.3400 -117.0203 225° Southwest 408 470 13,600 -1,800 Descending Los Angeles Center
02:24PM 34.2636 -117.1061 223° Southwest 378 435 13,100 -240 Descending Los Angeles Center
02:25PM 34.1661 -117.1258 190° South 358 412 13,100 -60 Level Los Angeles Center
02:26PM 34.0672 -117.1408 187° South 353 406 13,000 -660 Descending Los Angeles Center
02:28PM 33.9703 -117.1558 187° South 351 404 11,800 -1,320 Descending Los Angeles Center
02:29PM 33.8608 -117.1725 187° South 345 397 10,300 -1,500 Descending Los Angeles Center
02:30PM 33.7731 -117.1844 186° South 326 375 8,700 -1,080 Descending Los Angeles Center
02:31PM 33.7097 -117.2383 215° Southwest 301 346 8,100 -300 Descending Los Angeles Center
02:32PM 33.6550 -117.3153 230° Southwest 300 345 8,100  Level Los Angeles Center
02:33PM 33.6011 -117.3928 230° Southwest 301 346 8,100 -360 Level Los Angeles Center
02:34PM 33.5492 -117.4658 230° Southwest 294 338 7,400 -780 Descending Los Angeles Center
02:35PM 33.5433 -117.5525 265° West 237 273 6,500 -720 Descending Los Angeles Center
02:36PM 33.5528 -117.6242 279° West 223 257 6,000 -720 Descending Los Angeles Center
02:37PM 33.5667 -117.7000 282° West 226 260 5,200 -840 Descending Southern California TRACON
02:38PM 33.5667 -117.7500 270° West 214 246 4,600 -720 Descending Southern California TRACON
02:39PM 33.5833 -117.8333 284° West 225 259 3,800 -780 Descending Southern California TRACON
02:40PM 33.6000 -117.9000 287° West 203 234 3,000 -660 Descending Southern California TRACON
02:40PM 33.6183 -117.9108 334° Northwest 215 247 3,000  Level Los Angeles Center
02:41PM 33.6500 -117.9500 314° West 207 238 3,000  Level Southern California TRACON
02:42PM 33.6833 -118.0000 309° West 206 237 3,000 -360 Level Southern California TRACON
02:43PM 33.7333 -118.0500 320° Northwest 184 212 2,300 -780 Descending Southern California TRACON
02:44PM 33.7667 -118.0833 320° Northwest 159 183 1,400 -840 Descending Southern California TRACON
02:45PM 33.7833 -118.1167 301° West 130 150 800 -660 Descending Southern California TRACON
02:46PM 33.8167 -118.1333 337° Northwest 134 154 200 -480 Descending Southern California TRACON
02:46PM 33.8189 -118.1525 278° West 137 158 100 -240 Descending Los Angeles Center